SBI3245 UNEE-URSS
Flight info
| Callsign | SBI3245 |
|---|---|
| Flight time | 5h 7m |
| Altitude | 32000 |
| Route | NATIR1D NATIR B926 ODIDA B808 DIBUR/K0839F340 B808 DAKIN T586 ALABA L988 TUGLA/K0841F360 L988 OBATA G487 BINOL BINOL1K |
| Aircraft | A321/M-SDE3FGHIRWY/LB1 |
Departure
| Time | 2026-04-21 06:01 |
|---|---|
| Airport | Alexei Leonov Kemerovo International Airport (UNEE) |
Arrival
| Time | 2026-04-21 11:08 |
|---|---|
| Airport | Sochi International Airport (URSS) |
| Time | Latitude | Longitude | Altitude | Speed | Heading |
|---|---|---|---|---|---|
| 2026-04-21 05:28 | 55.27962 | 86.11588 | 851 ft | 0 kts | 325° |
| 2026-04-21 05:53 | 55.27944 | 86.11609 | 845 ft | 4 kts | 325° |
| 2026-04-21 05:53 | 55.27922 | 86.11636 | 853 ft | 4 kts | 325° |
| 2026-04-21 05:54 | 55.27905 | 86.11657 | 840 ft | 0 kts | 325° |
| 2026-04-21 05:57 | 55.27904 | 86.11658 | 840 ft | 1 kts | 325° |
| 2026-04-21 05:57 | 55.27893 | 86.11672 | 851 ft | 3 kts | 325° |
| 2026-04-21 05:57 | 55.27880 | 86.11687 | 845 ft | 4 kts | 325° |
| 2026-04-21 05:57 | 55.27856 | 86.11719 | 842 ft | 2 kts | 6° |
| 2026-04-21 05:58 | 55.27866 | 86.11733 | 851 ft | 7 kts | 32° |
| 2026-04-21 05:58 | 55.27935 | 86.11850 | 851 ft | 20 kts | 52° |
| 2026-04-21 05:58 | 55.28017 | 86.12044 | 848 ft | 19 kts | 54° |
| 2026-04-21 05:58 | 55.28087 | 86.12228 | 850 ft | 17 kts | 71° |
| 2026-04-21 05:59 | 55.28054 | 86.12406 | 853 ft | 15 kts | 123° |
| 2026-04-21 05:59 | 55.27999 | 86.12547 | 853 ft | 13 kts | 126° |
| 2026-04-21 05:59 | 55.27944 | 86.12660 | 849 ft | 11 kts | 145° |
| 2026-04-21 06:00 | 55.27824 | 86.12700 | 852 ft | 8 kts | 223° |
| 2026-04-21 06:00 | 55.27790 | 86.12623 | 851 ft | 8 kts | 233° |
| 2026-04-21 06:00 | 55.27716 | 86.12452 | 844 ft | 42 kts | 233° |
| 2026-04-21 06:00 | 55.27379 | 86.11639 | 849 ft | 121 kts | 233° |
| 2026-04-21 06:01 | 55.26736 | 86.10167 | 871 ft | 178 kts | 230° |
| 2026-04-21 06:01 | 55.25985 | 86.08451 | 1714 ft | 171 kts | 235° |
| 2026-04-21 06:01 | 55.25289 | 86.06767 | 2481 ft | 169 kts | 234° |
| 2026-04-21 06:01 | 55.24541 | 86.04997 | 2564 ft | 192 kts | 234° |
| 2026-04-21 06:02 | 55.23693 | 86.03018 | 2567 ft | 215 kts | 233° |
| 2026-04-21 06:02 | 55.22758 | 86.00837 | 2683 ft | 235 kts | 233° |
| 2026-04-21 06:02 | 55.21729 | 85.98411 | 2972 ft | 254 kts | 233° |
| 2026-04-21 06:02 | 55.20680 | 85.95929 | 3746 ft | 255 kts | 233° |
| 2026-04-21 06:03 | 55.19629 | 85.93425 | 4522 ft | 255 kts | 235° |
| 2026-04-21 06:03 | 55.18580 | 85.90922 | 5299 ft | 255 kts | 236° |
| 2026-04-21 06:03 | 55.17526 | 85.88424 | 6069 ft | 255 kts | 236° |
| 2026-04-21 06:03 | 55.16471 | 85.85930 | 6832 ft | 255 kts | 237° |
| 2026-04-21 06:04 | 55.15606 | 85.83255 | 7517 ft | 252 kts | 255° |
| 2026-04-21 06:04 | 55.15385 | 85.80272 | 8146 ft | 253 kts | 274° |
| 2026-04-21 06:04 | 55.15521 | 85.77161 | 8828 ft | 253 kts | 274° |
| 2026-04-21 06:04 | 55.15657 | 85.74081 | 9477 ft | 255 kts | 274° |
| 2026-04-21 06:05 | 55.15793 | 85.70985 | 10114 ft | 257 kts | 274° |
| 2026-04-21 06:05 | 55.15930 | 85.67819 | 10345 ft | 274 kts | 274° |
| 2026-04-21 06:05 | 55.16074 | 85.64375 | 10488 ft | 294 kts | 274° |
| 2026-04-21 06:05 | 55.16227 | 85.60697 | 10624 ft | 312 kts | 274° |
| 2026-04-21 06:06 | 55.16386 | 85.56842 | 10953 ft | 323 kts | 274° |
| 2026-04-21 06:06 | 55.16550 | 85.52903 | 11518 ft | 326 kts | 274° |
| 2026-04-21 06:06 | 55.16712 | 85.48928 | 12121 ft | 328 kts | 274° |
| 2026-04-21 06:06 | 55.16871 | 85.44943 | 12733 ft | 329 kts | 274° |
| 2026-04-21 06:07 | 55.17028 | 85.40928 | 13311 ft | 332 kts | 274° |
| 2026-04-21 06:07 | 55.17185 | 85.36899 | 13908 ft | 333 kts | 275° |
| 2026-04-21 06:07 | 55.17343 | 85.32843 | 14476 ft | 335 kts | 275° |
| 2026-04-21 06:07 | 55.17502 | 85.28760 | 15006 ft | 338 kts | 275° |
| 2026-04-21 06:08 | 55.17661 | 85.24646 | 15529 ft | 340 kts | 275° |
| 2026-04-21 06:08 | 55.17821 | 85.20504 | 16031 ft | 342 kts | 275° |
| 2026-04-21 06:08 | 55.17980 | 85.16342 | 16526 ft | 344 kts | 275° |
| 2026-04-21 06:08 | 55.18137 | 85.12159 | 16999 ft | 346 kts | 275° |
| 2026-04-21 06:09 | 55.18295 | 85.07940 | 17465 ft | 348 kts | 275° |
| 2026-04-21 06:09 | 55.18453 | 85.03699 | 17921 ft | 350 kts | 275° |
| 2026-04-21 06:09 | 55.18610 | 84.99428 | 18369 ft | 352 kts | 275° |
| 2026-04-21 06:09 | 55.18764 | 84.95137 | 18810 ft | 354 kts | 275° |
| 2026-04-21 06:10 | 55.18916 | 84.90820 | 19243 ft | 356 kts | 275° |
| 2026-04-21 06:10 | 55.19066 | 84.86476 | 19666 ft | 358 kts | 275° |
| 2026-04-21 06:10 | 55.19215 | 84.82108 | 20071 ft | 361 kts | 275° |
| 2026-04-21 06:10 | 55.19364 | 84.77718 | 20476 ft | 362 kts | 275° |
| 2026-04-21 06:11 | 55.19515 | 84.73297 | 20873 ft | 364 kts | 275° |
| 2026-04-21 06:11 | 55.19552 | 84.68851 | 21247 ft | 368 kts | 268° |
| 2026-04-21 06:11 | 55.19232 | 84.64389 | 21628 ft | 371 kts | 264° |
| 2026-04-21 06:11 | 55.18873 | 84.59909 | 22010 ft | 372 kts | 264° |
| 2026-04-21 06:12 | 55.18514 | 84.55466 | 22374 ft | 374 kts | 264° |
| 2026-04-21 06:12 | 55.18182 | 84.50935 | 22732 ft | 376 kts | 266° |
| 2026-04-21 06:12 | 55.17907 | 84.46381 | 23077 ft | 377 kts | 266° |
| 2026-04-21 06:12 | 55.17657 | 84.41791 | 23414 ft | 379 kts | 267° |
| 2026-04-21 06:13 | 55.17411 | 84.37189 | 23741 ft | 381 kts | 267° |
| 2026-04-21 06:13 | 55.17157 | 84.32562 | 24065 ft | 383 kts | 267° |
| 2026-04-21 06:13 | 55.16893 | 84.27913 | 24381 ft | 385 kts | 266° |
| 2026-04-21 06:13 | 55.16619 | 84.23254 | 24706 ft | 386 kts | 266° |
| 2026-04-21 06:14 | 55.16336 | 84.18576 | 25042 ft | 387 kts | 266° |
| 2026-04-21 06:14 | 55.16048 | 84.13882 | 25377 ft | 388 kts | 266° |
| 2026-04-21 06:14 | 55.15756 | 84.09177 | 25693 ft | 389 kts | 266° |
| 2026-04-21 06:14 | 55.15462 | 84.04466 | 25996 ft | 391 kts | 266° |
| 2026-04-21 06:15 | 55.15165 | 83.99742 | 26296 ft | 392 kts | 266° |
| 2026-04-21 06:15 | 55.14867 | 83.95001 | 26577 ft | 393 kts | 266° |
| 2026-04-21 06:15 | 55.14567 | 83.90250 | 26858 ft | 394 kts | 266° |
| 2026-04-21 06:15 | 55.14262 | 83.85464 | 27129 ft | 396 kts | 266° |
| 2026-04-21 06:16 | 55.13957 | 83.80683 | 27411 ft | 397 kts | 266° |
| 2026-04-21 06:16 | 55.13648 | 83.75889 | 27694 ft | 397 kts | 266° |
| 2026-04-21 06:16 | 55.13337 | 83.71082 | 27965 ft | 399 kts | 266° |
| 2026-04-21 06:16 | 55.13022 | 83.66257 | 28223 ft | 400 kts | 266° |
| 2026-04-21 06:17 | 55.12707 | 83.61441 | 28571 ft | 398 kts | 266° |
| 2026-04-21 06:17 | 55.12390 | 83.56645 | 28931 ft | 396 kts | 266° |
| 2026-04-21 06:17 | 55.12074 | 83.51873 | 29285 ft | 395 kts | 266° |
| 2026-04-21 06:17 | 55.11759 | 83.47120 | 29640 ft | 393 kts | 266° |
| 2026-04-21 06:18 | 55.11442 | 83.42397 | 29973 ft | 391 kts | 266° |
| 2026-04-21 06:18 | 55.11125 | 83.37697 | 30294 ft | 389 kts | 266° |
| 2026-04-21 06:18 | 55.10806 | 83.33004 | 30595 ft | 389 kts | 266° |
| 2026-04-21 06:18 | 55.10489 | 83.28384 | 30899 ft | 388 kts | 266° |
| 2026-04-21 06:19 | 55.10163 | 83.23648 | 31207 ft | 387 kts | 266° |
| 2026-04-21 06:19 | 55.09839 | 83.18984 | 31495 ft | 387 kts | 266° |
| 2026-04-21 06:19 | 55.09513 | 83.14327 | 31749 ft | 386 kts | 265° |
| 2026-04-21 06:19 | 55.09189 | 83.09674 | 31959 ft | 387 kts | 266° |
| 2026-04-21 06:20 | 55.08870 | 83.05092 | 32021 ft | 384 kts | 266° |
| 2026-04-21 06:20 | 55.08216 | 82.95884 | 32027 ft | 381 kts | 265° |
| 2026-04-21 06:21 | 55.07572 | 82.86703 | 32027 ft | 381 kts | 266° |
| 2026-04-21 06:21 | 55.07145 | 82.77493 | 32026 ft | 381 kts | 268° |
| 2026-04-21 06:22 | 55.06795 | 82.68277 | 32027 ft | 381 kts | 268° |
| 2026-04-21 06:22 | 55.06410 | 82.59066 | 32025 ft | 381 kts | 268° |
| 2026-04-21 06:23 | 55.05982 | 82.49853 | 32020 ft | 381 kts | 268° |
| 2026-04-21 06:23 | 55.05536 | 82.40631 | 32017 ft | 381 kts | 268° |
| 2026-04-21 06:24 | 55.05092 | 82.31416 | 32018 ft | 381 kts | 268° |
| 2026-04-21 06:24 | 55.04650 | 82.22188 | 32018 ft | 382 kts | 268° |
| 2026-04-21 06:25 | 55.04193 | 82.12968 | 32018 ft | 382 kts | 267° |
| 2026-04-21 06:25 | 55.03728 | 82.03741 | 32019 ft | 382 kts | 267° |
| 2026-04-21 06:26 | 55.03268 | 81.94579 | 32017 ft | 382 kts | 267° |
| 2026-04-21 06:26 | 55.02793 | 81.85355 | 32019 ft | 383 kts | 267° |
| 2026-04-21 06:27 | 55.02314 | 81.76118 | 32017 ft | 383 kts | 267° |
| 2026-04-21 06:27 | 55.01817 | 81.66875 | 32017 ft | 383 kts | 267° |
| 2026-04-21 06:28 | 55.01314 | 81.57619 | 32018 ft | 384 kts | 267° |
| 2026-04-21 06:28 | 55.00806 | 81.48367 | 32021 ft | 384 kts | 267° |
| 2026-04-21 06:29 | 55.00294 | 81.39101 | 32025 ft | 384 kts | 267° |
| 2026-04-21 06:29 | 54.99775 | 81.29837 | 32024 ft | 384 kts | 267° |
| 2026-04-21 06:30 | 54.99249 | 81.20627 | 32024 ft | 385 kts | 267° |
| 2026-04-21 06:30 | 54.98712 | 81.11358 | 32024 ft | 385 kts | 266° |
| 2026-04-21 06:31 | 54.98163 | 81.02088 | 32024 ft | 385 kts | 266° |
| 2026-04-21 06:31 | 54.97609 | 80.92815 | 32024 ft | 385 kts | 267° |
| 2026-04-21 06:32 | 54.97060 | 80.83535 | 32022 ft | 385 kts | 266° |
| 2026-04-21 06:32 | 54.96501 | 80.74250 | 32021 ft | 386 kts | 266° |
| 2026-04-21 06:33 | 54.95928 | 80.64957 | 32020 ft | 386 kts | 266° |
| 2026-04-21 06:33 | 54.95344 | 80.55649 | 32019 ft | 387 kts | 266° |
| 2026-04-21 06:34 | 54.94761 | 80.46398 | 32016 ft | 387 kts | 266° |
| 2026-04-21 06:34 | 54.94465 | 80.41718 | 32142 ft | 390 kts | 266° |
| 2026-04-21 06:34 | 54.94166 | 80.37018 | 32388 ft | 390 kts | 266° |
| 2026-04-21 06:34 | 54.93866 | 80.32329 | 32654 ft | 390 kts | 266° |
| 2026-04-21 06:35 | 54.93566 | 80.27647 | 32922 ft | 389 kts | 266° |
| 2026-04-21 06:35 | 54.93257 | 80.22963 | 33185 ft | 389 kts | 266° |
| 2026-04-21 06:35 | 54.92947 | 80.18292 | 33434 ft | 388 kts | 266° |
| 2026-04-21 06:35 | 54.92639 | 80.13637 | 33699 ft | 387 kts | 266° |
| 2026-04-21 06:36 | 54.92327 | 80.08987 | 33954 ft | 387 kts | 266° |
| 2026-04-21 06:36 | 54.91702 | 79.99717 | 34009 ft | 385 kts | 266° |
| 2026-04-21 06:37 | 54.91077 | 79.90446 | 34006 ft | 386 kts | 266° |
| 2026-04-21 06:37 | 54.90453 | 79.81244 | 34009 ft | 386 kts | 266° |
| 2026-04-21 06:38 | 54.89815 | 79.71975 | 34008 ft | 386 kts | 266° |
| 2026-04-21 06:38 | 54.89160 | 79.62709 | 34008 ft | 386 kts | 266° |
| 2026-04-21 06:39 | 54.88501 | 79.53453 | 34007 ft | 386 kts | 266° |
| 2026-04-21 06:39 | 54.87843 | 79.44193 | 34006 ft | 386 kts | 266° |
| 2026-04-21 06:40 | 54.87176 | 79.34919 | 34007 ft | 386 kts | 265° |
| 2026-04-21 06:40 | 54.86493 | 79.25664 | 34007 ft | 387 kts | 265° |
| 2026-04-21 06:41 | 54.85806 | 79.16408 | 34008 ft | 387 kts | 265° |
| 2026-04-21 06:41 | 54.85113 | 79.07145 | 34008 ft | 386 kts | 265° |
| 2026-04-21 06:42 | 54.84411 | 78.97957 | 34008 ft | 387 kts | 265° |
| 2026-04-21 06:42 | 54.83705 | 78.88694 | 34007 ft | 386 kts | 265° |
| 2026-04-21 06:43 | 54.82998 | 78.79455 | 34005 ft | 386 kts | 265° |
| 2026-04-21 06:43 | 54.82286 | 78.70225 | 34003 ft | 386 kts | 265° |
| 2026-04-21 06:44 | 54.81683 | 78.62538 | 34003 ft | 387 kts | 265° |
| 2026-04-21 06:44 | 54.80943 | 78.53302 | 34002 ft | 387 kts | 265° |
| 2026-04-21 06:45 | 54.80203 | 78.44056 | 34000 ft | 387 kts | 265° |
| 2026-04-21 06:45 | 54.79455 | 78.34807 | 33994 ft | 387 kts | 265° |
| 2026-04-21 06:46 | 54.78704 | 78.25567 | 33993 ft | 387 kts | 265° |
| 2026-04-21 06:46 | 54.77940 | 78.16325 | 33989 ft | 387 kts | 265° |
| 2026-04-21 06:47 | 54.77164 | 78.07136 | 33984 ft | 387 kts | 265° |
| 2026-04-21 06:47 | 54.76382 | 77.97902 | 33984 ft | 388 kts | 265° |
| 2026-04-21 06:48 | 54.75606 | 77.88662 | 33982 ft | 388 kts | 264° |
| 2026-04-21 06:48 | 54.74821 | 77.79413 | 33981 ft | 388 kts | 264° |
| 2026-04-21 06:49 | 54.74020 | 77.70155 | 33982 ft | 389 kts | 264° |
| 2026-04-21 06:49 | 54.73210 | 77.60885 | 33984 ft | 389 kts | 264° |
| 2026-04-21 06:50 | 54.72399 | 77.51678 | 33985 ft | 390 kts | 264° |
| 2026-04-21 06:50 | 54.71577 | 77.42413 | 33986 ft | 389 kts | 264° |
| 2026-04-21 06:51 | 54.70744 | 77.33157 | 33986 ft | 389 kts | 264° |
| 2026-04-21 06:51 | 54.69901 | 77.23900 | 33985 ft | 389 kts | 264° |
| 2026-04-21 06:52 | 54.69059 | 77.14648 | 33986 ft | 390 kts | 264° |
| 2026-04-21 06:52 | 54.68206 | 77.05390 | 33984 ft | 390 kts | 264° |
| 2026-04-21 06:53 | 54.67349 | 76.96142 | 33979 ft | 390 kts | 264° |
| 2026-04-21 06:53 | 54.66484 | 76.86890 | 33977 ft | 390 kts | 264° |
| 2026-04-21 06:54 | 54.65611 | 76.77640 | 33972 ft | 390 kts | 263° |
| 2026-04-21 06:54 | 54.64732 | 76.68388 | 33972 ft | 391 kts | 263° |
| 2026-04-21 06:55 | 54.63846 | 76.59125 | 33965 ft | 391 kts | 263° |
| 2026-04-21 06:55 | 54.62947 | 76.49841 | 33964 ft | 392 kts | 263° |
| 2026-04-21 06:56 | 54.62038 | 76.40566 | 33961 ft | 392 kts | 263° |
| 2026-04-21 06:56 | 54.61126 | 76.31268 | 33960 ft | 393 kts | 263° |
| 2026-04-21 06:57 | 54.60205 | 76.21966 | 33955 ft | 393 kts | 263° |
| 2026-04-21 06:57 | 54.59272 | 76.12661 | 33961 ft | 394 kts | 263° |
| 2026-04-21 06:58 | 54.58333 | 76.03347 | 33955 ft | 395 kts | 263° |
| 2026-04-21 06:58 | 54.57384 | 75.94021 | 33962 ft | 395 kts | 263° |
| 2026-04-21 06:59 | 54.56432 | 75.84671 | 33955 ft | 396 kts | 262° |
| 2026-04-21 06:59 | 54.55475 | 75.75385 | 33961 ft | 397 kts | 262° |
| 2026-04-21 07:00 | 54.54498 | 75.66025 | 33958 ft | 397 kts | 262° |
| 2026-04-21 07:00 | 54.53515 | 75.56640 | 33960 ft | 397 kts | 262° |
| 2026-04-21 07:01 | 54.52530 | 75.47297 | 33966 ft | 396 kts | 262° |
| 2026-04-21 07:01 | 54.51044 | 75.33351 | 33964 ft | 396 kts | 262° |
| 2026-04-21 07:02 | 54.50046 | 75.24039 | 33968 ft | 396 kts | 262° |
| 2026-04-21 07:02 | 54.49035 | 75.14725 | 33968 ft | 396 kts | 261° |
| 2026-04-21 07:03 | 54.48013 | 75.05414 | 33972 ft | 396 kts | 261° |
| 2026-04-21 07:03 | 54.46983 | 74.96102 | 33968 ft | 396 kts | 261° |
| 2026-04-21 07:04 | 54.45951 | 74.86800 | 33963 ft | 396 kts | 261° |
| 2026-04-21 07:04 | 54.44917 | 74.77507 | 33962 ft | 396 kts | 261° |
| 2026-04-21 07:05 | 54.43877 | 74.68207 | 33956 ft | 397 kts | 261° |
| 2026-04-21 07:05 | 54.42829 | 74.58951 | 33950 ft | 397 kts | 261° |
| 2026-04-21 07:06 | 54.41761 | 74.49614 | 33934 ft | 398 kts | 261° |
| 2026-04-21 07:06 | 54.40687 | 74.40283 | 33934 ft | 399 kts | 260° |
| 2026-04-21 07:07 | 54.39600 | 74.30933 | 33934 ft | 400 kts | 260° |
| 2026-04-21 07:07 | 54.38505 | 74.21552 | 33934 ft | 401 kts | 260° |
| 2026-04-21 07:08 | 54.37402 | 74.12161 | 33932 ft | 402 kts | 260° |
| 2026-04-21 07:08 | 54.36296 | 74.02760 | 33935 ft | 403 kts | 260° |
| 2026-04-21 07:09 | 54.35172 | 73.93341 | 33949 ft | 404 kts | 259° |
| 2026-04-21 07:09 | 54.34037 | 73.83914 | 33942 ft | 403 kts | 259° |
| 2026-04-21 07:10 | 54.32897 | 73.74498 | 33940 ft | 404 kts | 259° |
| 2026-04-21 07:10 | 54.31754 | 73.65078 | 33945 ft | 404 kts | 259° |
| 2026-04-21 07:11 | 54.30608 | 73.55730 | 33956 ft | 404 kts | 259° |
| 2026-04-21 07:11 | 54.29448 | 73.46332 | 33956 ft | 403 kts | 259° |
| 2026-04-21 07:12 | 54.28284 | 73.36957 | 33960 ft | 402 kts | 259° |
| 2026-04-21 07:12 | 54.27114 | 73.27606 | 33971 ft | 401 kts | 259° |
| 2026-04-21 07:13 | 54.25935 | 73.18274 | 33966 ft | 401 kts | 259° |
| 2026-04-21 07:13 | 54.24754 | 73.08953 | 33962 ft | 400 kts | 259° |
| 2026-04-21 07:14 | 54.23573 | 72.99679 | 33958 ft | 399 kts | 258° |
| 2026-04-21 07:14 | 54.22387 | 72.90417 | 33957 ft | 399 kts | 258° |
| 2026-04-21 07:15 | 54.21188 | 72.81169 | 33958 ft | 399 kts | 258° |
| 2026-04-21 07:15 | 54.19978 | 72.71925 | 33948 ft | 399 kts | 258° |
| 2026-04-21 07:16 | 54.18771 | 72.62681 | 33953 ft | 398 kts | 258° |
| 2026-04-21 07:16 | 54.17563 | 72.53454 | 33934 ft | 399 kts | 258° |
| 2026-04-21 07:17 | 54.16335 | 72.44226 | 33928 ft | 399 kts | 258° |
| 2026-04-21 07:17 | 54.14408 | 72.35442 | 33922 ft | 400 kts | 246° |
| 2026-04-21 07:18 | 54.11971 | 72.26895 | 33920 ft | 401 kts | 246° |
| 2026-04-21 07:18 | 54.09538 | 72.18320 | 33919 ft | 402 kts | 246° |
| 2026-04-21 07:19 | 54.07101 | 72.09753 | 33916 ft | 402 kts | 245° |
| 2026-04-21 07:19 | 54.04644 | 72.01188 | 33914 ft | 402 kts | 245° |
| 2026-04-21 07:20 | 54.02182 | 71.92639 | 33912 ft | 402 kts | 245° |
| 2026-04-21 07:20 | 53.99717 | 71.84104 | 33910 ft | 403 kts | 245° |
| 2026-04-21 07:21 | 53.97241 | 71.75569 | 33909 ft | 403 kts | 245° |
| 2026-04-21 07:21 | 53.94759 | 71.67026 | 33906 ft | 403 kts | 245° |
| 2026-04-21 07:22 | 53.92286 | 71.58559 | 33899 ft | 403 kts | 245° |
| 2026-04-21 07:22 | 53.89794 | 71.50046 | 33897 ft | 402 kts | 245° |
| 2026-04-21 07:23 | 53.87352 | 71.41510 | 33890 ft | 403 kts | 245° |
| 2026-04-21 07:23 | 53.84929 | 71.32960 | 33886 ft | 403 kts | 245° |
| 2026-04-21 07:24 | 53.82487 | 71.24411 | 33885 ft | 403 kts | 245° |
| 2026-04-21 07:24 | 53.80025 | 71.15876 | 33880 ft | 403 kts | 245° |
| 2026-04-21 07:25 | 53.77576 | 71.07415 | 33881 ft | 403 kts | 245° |
| 2026-04-21 07:25 | 53.75103 | 70.98906 | 33882 ft | 403 kts | 244° |
| 2026-04-21 07:26 | 53.72625 | 70.90409 | 33885 ft | 403 kts | 244° |
| 2026-04-21 07:26 | 53.70146 | 70.81928 | 33880 ft | 402 kts | 244° |
| 2026-04-21 07:27 | 53.67655 | 70.73460 | 33871 ft | 403 kts | 244° |
| 2026-04-21 07:27 | 53.65168 | 70.65000 | 33868 ft | 403 kts | 244° |
| 2026-04-21 07:28 | 53.62730 | 70.56490 | 33866 ft | 403 kts | 245° |
| 2026-04-21 07:28 | 53.60726 | 70.49412 | 33866 ft | 403 kts | 245° |
| 2026-04-21 07:29 | 53.57876 | 70.39466 | 33867 ft | 403 kts | 244° |
| 2026-04-21 07:29 | 53.55837 | 70.32406 | 33872 ft | 403 kts | 244° |
| 2026-04-21 07:30 | 53.53377 | 70.23942 | 33872 ft | 402 kts | 244° |
| 2026-04-21 07:30 | 53.50941 | 70.15545 | 33871 ft | 402 kts | 244° |
| 2026-04-21 07:31 | 53.48485 | 70.07113 | 33867 ft | 402 kts | 244° |
| 2026-04-21 07:31 | 53.46018 | 69.98679 | 33864 ft | 403 kts | 244° |
| 2026-04-21 07:32 | 53.43542 | 69.90255 | 33865 ft | 403 kts | 244° |
| 2026-04-21 07:32 | 53.41055 | 69.81831 | 33867 ft | 403 kts | 244° |
| 2026-04-21 07:33 | 53.38560 | 69.73409 | 33865 ft | 403 kts | 244° |
| 2026-04-21 07:33 | 53.36060 | 69.64983 | 33864 ft | 403 kts | 244° |
| 2026-04-21 07:34 | 53.33534 | 69.56583 | 33864 ft | 404 kts | 243° |
| 2026-04-21 07:34 | 53.30945 | 69.48309 | 33865 ft | 404 kts | 242° |
| 2026-04-21 07:35 | 53.28325 | 69.40002 | 33864 ft | 404 kts | 242° |
| 2026-04-21 07:35 | 53.25706 | 69.31687 | 33863 ft | 404 kts | 242° |
| 2026-04-21 07:36 | 53.23088 | 69.23375 | 33862 ft | 405 kts | 242° |
| 2026-04-21 07:36 | 53.20465 | 69.15067 | 33861 ft | 404 kts | 242° |
| 2026-04-21 07:37 | 53.17828 | 69.06775 | 33861 ft | 405 kts | 242° |
| 2026-04-21 07:37 | 53.15186 | 68.98488 | 33860 ft | 405 kts | 242° |
| 2026-04-21 07:38 | 53.12538 | 68.90194 | 33860 ft | 405 kts | 242° |
| 2026-04-21 07:38 | 53.09884 | 68.81909 | 33861 ft | 406 kts | 242° |
| 2026-04-21 07:39 | 53.07225 | 68.73623 | 33865 ft | 406 kts | 242° |
| 2026-04-21 07:39 | 53.04558 | 68.65348 | 33860 ft | 406 kts | 242° |
| 2026-04-21 07:40 | 53.01866 | 68.57079 | 33859 ft | 407 kts | 241° |
| 2026-04-21 07:40 | 52.99176 | 68.48813 | 33859 ft | 407 kts | 242° |
| 2026-04-21 07:41 | 52.96532 | 68.40514 | 33857 ft | 406 kts | 242° |
| 2026-04-21 07:41 | 52.93890 | 68.32226 | 33857 ft | 406 kts | 242° |
| 2026-04-21 07:42 | 52.91227 | 68.23955 | 33856 ft | 407 kts | 241° |
| 2026-04-21 07:42 | 52.88554 | 68.15695 | 33852 ft | 407 kts | 241° |
| 2026-04-21 07:43 | 52.85876 | 68.07440 | 33851 ft | 407 kts | 241° |
| 2026-04-21 07:43 | 52.83201 | 67.99242 | 33852 ft | 407 kts | 241° |
| 2026-04-21 07:44 | 52.80502 | 67.90993 | 33849 ft | 408 kts | 241° |
| 2026-04-21 07:44 | 52.77799 | 67.82749 | 33846 ft | 408 kts | 240° |
| 2026-04-21 07:45 | 52.75091 | 67.74505 | 33847 ft | 408 kts | 240° |
| 2026-04-21 07:45 | 52.72377 | 67.66270 | 33848 ft | 409 kts | 240° |
| 2026-04-21 07:46 | 52.69650 | 67.58035 | 33849 ft | 409 kts | 240° |
| 2026-04-21 07:46 | 52.66918 | 67.49812 | 33847 ft | 409 kts | 240° |
| 2026-04-21 07:47 | 52.64182 | 67.41594 | 33848 ft | 409 kts | 240° |
| 2026-04-21 07:47 | 52.61427 | 67.33399 | 33847 ft | 409 kts | 240° |
| 2026-04-21 07:48 | 52.58697 | 67.25195 | 33846 ft | 409 kts | 240° |
| 2026-04-21 07:48 | 52.56015 | 67.16946 | 33846 ft | 409 kts | 241° |
| 2026-04-21 07:49 | 52.53340 | 67.08707 | 33843 ft | 409 kts | 240° |
| 2026-04-21 07:49 | 52.50640 | 67.00495 | 33837 ft | 409 kts | 240° |
| 2026-04-21 07:50 | 52.47926 | 66.92282 | 33833 ft | 409 kts | 240° |
| 2026-04-21 07:50 | 52.45210 | 66.84075 | 33833 ft | 409 kts | 240° |
| 2026-04-21 07:51 | 52.42485 | 66.75885 | 33829 ft | 410 kts | 240° |
| 2026-04-21 07:51 | 52.39755 | 66.67691 | 33817 ft | 410 kts | 240° |
| 2026-04-21 07:52 | 52.37033 | 66.59536 | 33812 ft | 411 kts | 240° |
| 2026-04-21 07:52 | 52.34264 | 66.51279 | 33808 ft | 411 kts | 239° |
| 2026-04-21 07:53 | 52.31503 | 66.43092 | 33804 ft | 411 kts | 239° |
| 2026-04-21 07:53 | 52.28756 | 66.34947 | 33803 ft | 412 kts | 239° |
| 2026-04-21 07:54 | 52.25984 | 66.26751 | 33805 ft | 412 kts | 239° |
| 2026-04-21 07:54 | 52.23202 | 66.18562 | 33803 ft | 413 kts | 239° |
| 2026-04-21 07:55 | 52.20406 | 66.10376 | 33803 ft | 414 kts | 239° |
| 2026-04-21 07:55 | 52.17606 | 66.02189 | 33802 ft | 414 kts | 239° |
| 2026-04-21 07:56 | 52.14800 | 65.94003 | 33800 ft | 414 kts | 239° |
| 2026-04-21 07:56 | 52.11984 | 65.85814 | 33802 ft | 414 kts | 239° |
| 2026-04-21 07:57 | 52.09155 | 65.77645 | 33803 ft | 414 kts | 239° |
| 2026-04-21 07:57 | 52.06325 | 65.69490 | 33803 ft | 414 kts | 239° |
| 2026-04-21 07:58 | 52.03485 | 65.61353 | 33806 ft | 414 kts | 239° |
| 2026-04-21 07:58 | 52.00645 | 65.53209 | 33811 ft | 414 kts | 239° |
| 2026-04-21 07:59 | 51.97810 | 65.45084 | 33809 ft | 414 kts | 239° |
| 2026-04-21 07:59 | 51.94960 | 65.36970 | 33802 ft | 414 kts | 239° |
| 2026-04-21 08:00 | 51.92101 | 65.28858 | 33801 ft | 415 kts | 239° |
| 2026-04-21 08:00 | 51.89252 | 65.20806 | 33803 ft | 415 kts | 239° |
| 2026-04-21 08:01 | 51.86376 | 65.12718 | 33807 ft | 415 kts | 239° |
| 2026-04-21 08:02 | 51.82074 | 65.00602 | 33805 ft | 414 kts | 239° |
| 2026-04-21 08:02 | 51.79202 | 64.92553 | 33805 ft | 414 kts | 239° |
| 2026-04-21 08:03 | 51.76320 | 64.84512 | 33805 ft | 414 kts | 239° |
| 2026-04-21 08:03 | 51.73433 | 64.76480 | 33805 ft | 414 kts | 239° |
| 2026-04-21 08:04 | 51.70600 | 64.68411 | 33804 ft | 413 kts | 240° |
| 2026-04-21 08:04 | 51.67806 | 64.60319 | 33806 ft | 413 kts | 240° |
| 2026-04-21 08:05 | 51.65008 | 64.52243 | 33807 ft | 412 kts | 240° |
| 2026-04-21 08:05 | 51.62183 | 64.44211 | 33802 ft | 412 kts | 239° |
| 2026-04-21 08:06 | 51.59356 | 64.36203 | 33805 ft | 411 kts | 239° |
| 2026-04-21 08:06 | 51.56525 | 64.28190 | 33806 ft | 411 kts | 239° |
| 2026-04-21 08:07 | 51.53697 | 64.20217 | 33804 ft | 411 kts | 239° |
| 2026-04-21 08:07 | 51.50835 | 64.12339 | 33804 ft | 411 kts | 238° |
| 2026-04-21 08:08 | 51.47878 | 64.04498 | 33804 ft | 411 kts | 238° |
| 2026-04-21 08:08 | 51.44908 | 63.96680 | 33803 ft | 410 kts | 238° |
| 2026-04-21 08:09 | 51.41949 | 63.88834 | 33805 ft | 411 kts | 238° |
| 2026-04-21 08:09 | 51.38987 | 63.80996 | 33806 ft | 411 kts | 238° |
| 2026-04-21 08:10 | 51.36015 | 63.73164 | 33804 ft | 411 kts | 238° |
| 2026-04-21 08:10 | 51.33549 | 63.66672 | 33802 ft | 411 kts | 238° |
| 2026-04-21 08:11 | 51.30073 | 63.57550 | 33799 ft | 411 kts | 238° |
| 2026-04-21 08:11 | 51.27112 | 63.49801 | 33794 ft | 411 kts | 238° |
| 2026-04-21 08:12 | 51.24131 | 63.42004 | 33787 ft | 411 kts | 238° |
| 2026-04-21 08:12 | 51.21618 | 63.35486 | 33785 ft | 411 kts | 238° |
| 2026-04-21 08:13 | 51.18614 | 63.27715 | 33780 ft | 412 kts | 238° |
| 2026-04-21 08:13 | 51.15627 | 63.19979 | 33783 ft | 412 kts | 238° |
| 2026-04-21 08:14 | 51.12609 | 63.12206 | 33784 ft | 412 kts | 238° |
| 2026-04-21 08:14 | 51.09617 | 63.04426 | 33787 ft | 412 kts | 238° |
| 2026-04-21 08:15 | 51.06633 | 62.96636 | 33791 ft | 412 kts | 238° |
| 2026-04-21 08:15 | 51.03642 | 62.88853 | 33793 ft | 412 kts | 238° |
| 2026-04-21 08:16 | 51.00668 | 62.81141 | 33794 ft | 412 kts | 238° |
| 2026-04-21 08:16 | 50.97663 | 62.73394 | 33798 ft | 412 kts | 238° |
| 2026-04-21 08:17 | 50.94647 | 62.65651 | 33801 ft | 412 kts | 238° |
| 2026-04-21 08:17 | 50.91630 | 62.57917 | 33803 ft | 412 kts | 238° |
| 2026-04-21 08:18 | 50.88611 | 62.50196 | 33805 ft | 412 kts | 238° |
| 2026-04-21 08:18 | 50.85579 | 62.42488 | 33807 ft | 412 kts | 238° |
| 2026-04-21 08:19 | 50.82547 | 62.34776 | 33807 ft | 413 kts | 238° |
| 2026-04-21 08:19 | 50.79512 | 62.27079 | 33806 ft | 413 kts | 238° |
| 2026-04-21 08:20 | 50.76460 | 62.19387 | 33803 ft | 413 kts | 238° |
| 2026-04-21 08:20 | 50.73427 | 62.11750 | 33803 ft | 413 kts | 238° |
| 2026-04-21 08:21 | 50.70372 | 62.04066 | 33806 ft | 413 kts | 238° |
| 2026-04-21 08:21 | 50.67314 | 61.96377 | 33813 ft | 414 kts | 239° |
| 2026-04-21 08:22 | 50.64536 | 61.88446 | 33825 ft | 413 kts | 242° |
| 2026-04-21 08:22 | 50.61957 | 61.80346 | 33833 ft | 413 kts | 243° |
| 2026-04-21 08:23 | 50.59346 | 61.72279 | 33834 ft | 413 kts | 242° |
| 2026-04-21 08:23 | 50.56677 | 61.64286 | 33835 ft | 413 kts | 241° |
| 2026-04-21 08:24 | 50.53991 | 61.56313 | 33835 ft | 412 kts | 241° |
| 2026-04-21 08:24 | 50.51304 | 61.48335 | 33838 ft | 413 kts | 241° |
| 2026-04-21 08:25 | 50.48618 | 61.40374 | 33840 ft | 412 kts | 241° |
| 2026-04-21 08:25 | 50.45929 | 61.32433 | 33838 ft | 412 kts | 241° |
| 2026-04-21 08:26 | 50.43233 | 61.24514 | 33839 ft | 411 kts | 241° |
| 2026-04-21 08:26 | 50.40535 | 61.16626 | 33839 ft | 410 kts | 241° |
| 2026-04-21 08:27 | 50.37836 | 61.08758 | 33839 ft | 409 kts | 241° |
| 2026-04-21 08:27 | 50.35140 | 61.00902 | 33839 ft | 409 kts | 241° |
| 2026-04-21 08:28 | 50.32450 | 60.93076 | 33836 ft | 408 kts | 241° |
| 2026-04-21 08:28 | 50.29761 | 60.85270 | 33832 ft | 407 kts | 241° |
| 2026-04-21 08:29 | 50.27064 | 60.77491 | 33824 ft | 407 kts | 240° |
| 2026-04-21 08:29 | 50.24368 | 60.69733 | 33820 ft | 406 kts | 240° |
| 2026-04-21 08:30 | 50.21673 | 60.61985 | 33818 ft | 405 kts | 240° |
| 2026-04-21 08:30 | 50.18975 | 60.54264 | 33815 ft | 405 kts | 240° |
| 2026-04-21 08:31 | 50.16290 | 60.46634 | 33809 ft | 404 kts | 240° |
| 2026-04-21 08:31 | 50.13585 | 60.38966 | 33807 ft | 403 kts | 240° |
| 2026-04-21 08:32 | 50.10886 | 60.31298 | 33807 ft | 403 kts | 240° |
| 2026-04-21 08:32 | 50.08185 | 60.23659 | 33802 ft | 402 kts | 240° |
| 2026-04-21 08:33 | 50.05475 | 60.16031 | 33799 ft | 403 kts | 240° |
| 2026-04-21 08:33 | 50.02758 | 60.08419 | 33798 ft | 402 kts | 240° |
| 2026-04-21 08:34 | 50.00033 | 60.00811 | 33796 ft | 402 kts | 240° |
| 2026-04-21 08:34 | 49.97315 | 59.93211 | 33795 ft | 402 kts | 240° |
| 2026-04-21 08:35 | 49.94595 | 59.85607 | 33794 ft | 402 kts | 240° |
| 2026-04-21 08:35 | 49.91860 | 59.78023 | 33794 ft | 402 kts | 240° |
| 2026-04-21 08:36 | 49.89124 | 59.70440 | 33795 ft | 403 kts | 240° |
| 2026-04-21 08:36 | 49.86385 | 59.62873 | 33797 ft | 403 kts | 240° |
| 2026-04-21 08:37 | 49.83638 | 59.55314 | 33805 ft | 403 kts | 240° |
| 2026-04-21 08:37 | 49.80882 | 59.47769 | 33811 ft | 402 kts | 240° |
| 2026-04-21 08:38 | 49.78128 | 59.40234 | 33818 ft | 402 kts | 240° |
| 2026-04-21 08:38 | 49.75374 | 59.32704 | 33819 ft | 402 kts | 239° |
| 2026-04-21 08:39 | 49.72607 | 59.25192 | 33824 ft | 401 kts | 239° |
| 2026-04-21 08:39 | 49.69841 | 59.17709 | 33825 ft | 401 kts | 239° |
| 2026-04-21 08:40 | 49.67079 | 59.10227 | 33829 ft | 400 kts | 239° |
| 2026-04-21 08:40 | 49.64316 | 59.02769 | 33827 ft | 400 kts | 239° |
| 2026-04-21 08:41 | 49.61550 | 58.95331 | 33828 ft | 400 kts | 239° |
| 2026-04-21 08:41 | 49.58801 | 58.87938 | 33827 ft | 399 kts | 239° |
| 2026-04-21 08:42 | 49.56028 | 58.80522 | 33828 ft | 399 kts | 239° |
| 2026-04-21 08:42 | 49.53248 | 58.73115 | 33832 ft | 399 kts | 239° |
| 2026-04-21 08:43 | 49.50467 | 58.65739 | 33829 ft | 398 kts | 239° |
| 2026-04-21 08:43 | 49.47688 | 58.58369 | 33825 ft | 398 kts | 239° |
| 2026-04-21 08:44 | 49.44909 | 58.51017 | 33833 ft | 397 kts | 239° |
| 2026-04-21 08:44 | 49.42129 | 58.43687 | 33843 ft | 397 kts | 239° |
| 2026-04-21 08:45 | 49.39341 | 58.36367 | 33848 ft | 397 kts | 238° |
| 2026-04-21 08:45 | 49.36551 | 58.29075 | 33847 ft | 396 kts | 238° |
| 2026-04-21 08:46 | 49.33762 | 58.21783 | 33847 ft | 396 kts | 238° |
| 2026-04-21 08:46 | 49.30964 | 58.14495 | 33851 ft | 396 kts | 238° |
| 2026-04-21 08:47 | 49.28169 | 58.07220 | 33852 ft | 396 kts | 238° |
| 2026-04-21 08:47 | 49.25365 | 57.99947 | 33854 ft | 396 kts | 238° |
| 2026-04-21 08:48 | 49.22560 | 57.92690 | 33863 ft | 396 kts | 238° |
| 2026-04-21 08:48 | 49.19770 | 57.85497 | 33867 ft | 395 kts | 238° |
| 2026-04-21 08:49 | 49.16963 | 57.78289 | 33868 ft | 394 kts | 238° |
| 2026-04-21 08:49 | 49.14158 | 57.71097 | 33866 ft | 394 kts | 238° |
| 2026-04-21 08:50 | 49.11345 | 57.63914 | 33866 ft | 394 kts | 238° |
| 2026-04-21 08:50 | 49.08530 | 57.56746 | 33864 ft | 394 kts | 238° |
| 2026-04-21 08:51 | 49.05717 | 57.49585 | 33861 ft | 393 kts | 238° |
| 2026-04-21 08:51 | 49.02907 | 57.42448 | 33858 ft | 392 kts | 238° |
| 2026-04-21 08:52 | 49.00087 | 57.35323 | 33855 ft | 392 kts | 238° |
| 2026-04-21 08:52 | 48.97262 | 57.28211 | 33854 ft | 392 kts | 238° |
| 2026-04-21 08:53 | 48.94467 | 57.21153 | 33853 ft | 392 kts | 237° |
| 2026-04-21 08:53 | 48.91643 | 57.14057 | 33856 ft | 392 kts | 237° |
| 2026-04-21 08:54 | 48.88807 | 57.06987 | 33859 ft | 391 kts | 237° |
| 2026-04-21 08:54 | 48.85970 | 56.99938 | 33860 ft | 391 kts | 237° |
| 2026-04-21 08:55 | 48.83130 | 56.92879 | 33865 ft | 391 kts | 237° |
| 2026-04-21 08:55 | 48.80285 | 56.85836 | 33871 ft | 391 kts | 237° |
| 2026-04-21 08:56 | 48.77924 | 56.79969 | 33875 ft | 391 kts | 237° |
| 2026-04-21 08:56 | 48.75084 | 56.72917 | 33877 ft | 391 kts | 237° |
| 2026-04-21 08:57 | 48.72230 | 56.65892 | 33882 ft | 392 kts | 237° |
| 2026-04-21 08:57 | 48.69368 | 56.58868 | 33889 ft | 391 kts | 237° |
| 2026-04-21 08:58 | 48.66509 | 56.51869 | 33887 ft | 391 kts | 237° |
| 2026-04-21 08:58 | 48.63646 | 56.44886 | 33888 ft | 390 kts | 237° |
| 2026-04-21 08:59 | 48.60786 | 56.37911 | 33880 ft | 390 kts | 237° |
| 2026-04-21 08:59 | 48.57927 | 56.30955 | 33878 ft | 389 kts | 237° |
| 2026-04-21 09:00 | 48.55068 | 56.24014 | 33874 ft | 389 kts | 237° |
| 2026-04-21 09:00 | 48.52205 | 56.17073 | 33872 ft | 389 kts | 237° |
| 2026-04-21 09:01 | 48.49373 | 56.10107 | 33873 ft | 390 kts | 237° |
| 2026-04-21 09:01 | 48.46538 | 56.03140 | 33874 ft | 390 kts | 237° |
| 2026-04-21 09:02 | 48.43689 | 55.96189 | 33877 ft | 390 kts | 237° |
| 2026-04-21 09:02 | 48.40836 | 55.89255 | 33879 ft | 389 kts | 237° |
| 2026-04-21 09:03 | 48.36560 | 55.78881 | 33881 ft | 389 kts | 236° |
| 2026-04-21 09:03 | 48.33695 | 55.71978 | 33884 ft | 389 kts | 236° |
| 2026-04-21 09:04 | 48.30834 | 55.65071 | 33889 ft | 389 kts | 236° |
| 2026-04-21 09:04 | 48.27963 | 55.58172 | 33892 ft | 390 kts | 236° |
| 2026-04-21 09:05 | 48.25086 | 55.51274 | 33896 ft | 389 kts | 236° |
| 2026-04-21 09:05 | 48.22209 | 55.44388 | 33892 ft | 389 kts | 236° |
| 2026-04-21 09:06 | 48.19329 | 55.37514 | 33894 ft | 389 kts | 236° |
| 2026-04-21 09:06 | 48.16464 | 55.30708 | 33902 ft | 389 kts | 236° |
| 2026-04-21 09:07 | 48.13579 | 55.23858 | 33901 ft | 388 kts | 236° |
| 2026-04-21 09:07 | 48.10699 | 55.17041 | 33920 ft | 386 kts | 236° |
| 2026-04-21 09:08 | 48.07833 | 55.10266 | 33925 ft | 385 kts | 236° |
| 2026-04-21 09:08 | 48.04970 | 55.03520 | 33927 ft | 384 kts | 236° |
| 2026-04-21 09:09 | 48.02100 | 54.96799 | 33924 ft | 383 kts | 236° |
| 2026-04-21 09:09 | 47.99236 | 54.90087 | 33921 ft | 383 kts | 236° |
| 2026-04-21 09:10 | 47.96366 | 54.83393 | 33920 ft | 383 kts | 236° |
| 2026-04-21 09:10 | 47.93535 | 54.76673 | 33922 ft | 383 kts | 240° |
| 2026-04-21 09:11 | 47.91536 | 54.69285 | 33921 ft | 385 kts | 246° |
| 2026-04-21 09:11 | 47.89657 | 54.61787 | 33923 ft | 386 kts | 246° |
| 2026-04-21 09:12 | 47.87758 | 54.54304 | 33928 ft | 386 kts | 245° |
| 2026-04-21 09:12 | 47.85874 | 54.46858 | 33934 ft | 386 kts | 246° |
| 2026-04-21 09:13 | 47.83963 | 54.39320 | 33938 ft | 387 kts | 246° |
| 2026-04-21 09:13 | 47.82081 | 54.31881 | 33946 ft | 387 kts | 246° |
| 2026-04-21 09:14 | 47.80190 | 54.24418 | 33947 ft | 385 kts | 246° |
| 2026-04-21 09:14 | 47.78270 | 54.16975 | 33934 ft | 386 kts | 245° |
| 2026-04-21 09:15 | 47.76342 | 54.09529 | 33936 ft | 386 kts | 245° |
| 2026-04-21 09:15 | 47.74427 | 54.02078 | 33950 ft | 386 kts | 245° |
| 2026-04-21 09:16 | 47.72515 | 53.94636 | 33950 ft | 385 kts | 245° |
| 2026-04-21 09:16 | 47.70587 | 53.87201 | 33953 ft | 386 kts | 245° |
| 2026-04-21 09:17 | 47.68649 | 53.79766 | 33954 ft | 386 kts | 245° |
| 2026-04-21 09:17 | 47.66709 | 53.72327 | 33960 ft | 386 kts | 245° |
| 2026-04-21 09:18 | 47.64766 | 53.64909 | 33958 ft | 386 kts | 245° |
| 2026-04-21 09:18 | 47.62814 | 53.57475 | 33966 ft | 386 kts | 245° |
| 2026-04-21 09:19 | 47.60875 | 53.50105 | 33959 ft | 386 kts | 245° |
| 2026-04-21 09:19 | 47.58917 | 53.42702 | 33963 ft | 385 kts | 245° |
| 2026-04-21 09:20 | 47.56950 | 53.35304 | 33965 ft | 385 kts | 245° |
| 2026-04-21 09:20 | 47.54989 | 53.27912 | 33969 ft | 386 kts | 245° |
| 2026-04-21 09:21 | 47.53021 | 53.20526 | 33969 ft | 386 kts | 245° |
| 2026-04-21 09:21 | 47.51043 | 53.13149 | 33972 ft | 386 kts | 245° |
| 2026-04-21 09:22 | 47.49060 | 53.05778 | 33970 ft | 386 kts | 245° |
| 2026-04-21 09:22 | 47.47072 | 52.98395 | 33974 ft | 386 kts | 245° |
| 2026-04-21 09:23 | 47.45081 | 52.91027 | 33978 ft | 386 kts | 245° |
| 2026-04-21 09:23 | 47.43076 | 52.83657 | 33980 ft | 387 kts | 245° |
| 2026-04-21 09:24 | 47.41066 | 52.76284 | 33984 ft | 387 kts | 245° |
| 2026-04-21 09:24 | 47.39061 | 52.68913 | 33988 ft | 387 kts | 244° |
| 2026-04-21 09:25 | 47.37051 | 52.61546 | 33991 ft | 387 kts | 244° |
| 2026-04-21 09:25 | 47.35036 | 52.54174 | 33993 ft | 387 kts | 244° |
| 2026-04-21 09:26 | 47.33029 | 52.46860 | 33997 ft | 387 kts | 244° |
| 2026-04-21 09:26 | 47.31000 | 52.39508 | 33996 ft | 388 kts | 244° |
| 2026-04-21 09:27 | 47.28957 | 52.32141 | 33994 ft | 388 kts | 244° |
| 2026-04-21 09:27 | 47.26917 | 52.24779 | 33999 ft | 388 kts | 244° |
| 2026-04-21 09:28 | 47.24872 | 52.17433 | 33997 ft | 388 kts | 244° |
| 2026-04-21 09:28 | 47.22822 | 52.10099 | 33995 ft | 387 kts | 244° |
| 2026-04-21 09:29 | 47.20785 | 52.02808 | 33999 ft | 387 kts | 244° |
| 2026-04-21 09:29 | 47.18731 | 51.95493 | 33998 ft | 387 kts | 244° |
| 2026-04-21 09:30 | 47.16669 | 51.88189 | 33995 ft | 387 kts | 244° |
| 2026-04-21 09:30 | 47.14607 | 51.80887 | 33994 ft | 387 kts | 244° |
| 2026-04-21 09:31 | 47.12521 | 51.73599 | 33995 ft | 387 kts | 244° |
| 2026-04-21 09:31 | 47.10425 | 51.66317 | 34011 ft | 388 kts | 244° |
| 2026-04-21 09:32 | 47.09369 | 51.62657 | 34240 ft | 390 kts | 244° |
| 2026-04-21 09:32 | 47.08308 | 51.58988 | 34494 ft | 391 kts | 244° |
| 2026-04-21 09:32 | 47.07247 | 51.55307 | 34747 ft | 391 kts | 244° |
| 2026-04-21 09:32 | 47.06199 | 51.51679 | 35003 ft | 391 kts | 244° |
| 2026-04-21 09:33 | 47.05137 | 51.48003 | 35217 ft | 392 kts | 244° |
| 2026-04-21 09:33 | 47.04070 | 51.44316 | 35446 ft | 392 kts | 244° |
| 2026-04-21 09:33 | 47.03002 | 51.40632 | 35677 ft | 393 kts | 244° |
| 2026-04-21 09:33 | 47.01927 | 51.36948 | 35886 ft | 393 kts | 244° |
| 2026-04-21 09:34 | 47.00847 | 51.33254 | 35993 ft | 394 kts | 244° |
| 2026-04-21 09:34 | 46.99765 | 51.29557 | 35998 ft | 394 kts | 244° |
| 2026-04-21 09:34 | 46.97603 | 51.22178 | 35999 ft | 395 kts | 244° |
| 2026-04-21 09:35 | 46.95431 | 51.14788 | 36000 ft | 395 kts | 244° |
| 2026-04-21 09:35 | 46.93257 | 51.07398 | 35997 ft | 395 kts | 244° |
| 2026-04-21 09:36 | 46.91094 | 51.00062 | 35996 ft | 395 kts | 244° |
| 2026-04-21 09:36 | 46.88906 | 50.92680 | 35999 ft | 395 kts | 244° |
| 2026-04-21 09:37 | 46.86703 | 50.85291 | 36004 ft | 396 kts | 244° |
| 2026-04-21 09:37 | 46.84502 | 50.77913 | 36007 ft | 396 kts | 244° |
| 2026-04-21 09:38 | 46.82302 | 50.70530 | 36010 ft | 396 kts | 244° |
| 2026-04-21 09:38 | 46.80109 | 50.63199 | 36010 ft | 397 kts | 244° |
| 2026-04-21 09:39 | 46.77896 | 50.55798 | 36012 ft | 398 kts | 244° |
| 2026-04-21 09:39 | 46.76034 | 50.49608 | 36013 ft | 397 kts | 243° |
| 2026-04-21 09:40 | 46.73808 | 50.42250 | 36013 ft | 397 kts | 243° |
| 2026-04-21 09:40 | 46.71581 | 50.34892 | 36012 ft | 396 kts | 243° |
| 2026-04-21 09:41 | 46.69356 | 50.27552 | 36014 ft | 396 kts | 243° |
| 2026-04-21 09:41 | 46.67132 | 50.20259 | 36016 ft | 396 kts | 243° |
| 2026-04-21 09:42 | 46.64892 | 50.12944 | 36020 ft | 396 kts | 243° |
| 2026-04-21 09:42 | 46.62649 | 50.05626 | 36019 ft | 396 kts | 243° |
| 2026-04-21 09:43 | 46.60403 | 49.98325 | 36020 ft | 396 kts | 243° |
| 2026-04-21 09:43 | 46.58151 | 49.91014 | 36020 ft | 396 kts | 243° |
| 2026-04-21 09:44 | 46.55894 | 49.83694 | 36021 ft | 397 kts | 243° |
| 2026-04-21 09:44 | 46.53634 | 49.76373 | 36024 ft | 397 kts | 243° |
| 2026-04-21 09:45 | 46.51365 | 49.69053 | 36026 ft | 397 kts | 243° |
| 2026-04-21 09:45 | 46.49087 | 49.61737 | 36028 ft | 397 kts | 243° |
| 2026-04-21 09:46 | 46.46804 | 49.54442 | 36026 ft | 397 kts | 243° |
| 2026-04-21 09:46 | 46.44518 | 49.47155 | 36025 ft | 397 kts | 243° |
| 2026-04-21 09:47 | 46.42227 | 49.39858 | 36023 ft | 397 kts | 243° |
| 2026-04-21 09:47 | 46.39933 | 49.32582 | 36021 ft | 397 kts | 243° |
| 2026-04-21 09:48 | 46.37628 | 49.25309 | 36018 ft | 398 kts | 242° |
| 2026-04-21 09:48 | 46.35342 | 49.18064 | 36018 ft | 399 kts | 243° |
| 2026-04-21 09:49 | 46.33219 | 49.10630 | 36021 ft | 400 kts | 245° |
| 2026-04-21 09:49 | 46.31185 | 49.03127 | 36024 ft | 401 kts | 245° |
| 2026-04-21 09:50 | 46.29454 | 48.96856 | 36025 ft | 401 kts | 245° |
| 2026-04-21 09:50 | 46.27004 | 48.88179 | 36027 ft | 401 kts | 245° |
| 2026-04-21 09:51 | 46.24881 | 48.80718 | 36025 ft | 402 kts | 244° |
| 2026-04-21 09:51 | 46.22757 | 48.73243 | 36025 ft | 402 kts | 245° |
| 2026-04-21 09:52 | 46.20624 | 48.65762 | 36026 ft | 402 kts | 245° |
| 2026-04-21 09:52 | 46.18493 | 48.58291 | 36028 ft | 403 kts | 245° |
| 2026-04-21 09:53 | 46.16473 | 48.50742 | 36025 ft | 404 kts | 246° |
| 2026-04-21 09:53 | 46.14510 | 48.43148 | 36027 ft | 404 kts | 246° |
| 2026-04-21 09:54 | 46.12525 | 48.35560 | 36029 ft | 405 kts | 246° |
| 2026-04-21 09:54 | 46.10504 | 48.27981 | 36034 ft | 405 kts | 246° |
| 2026-04-21 09:55 | 46.08465 | 48.20404 | 36033 ft | 405 kts | 245° |
| 2026-04-21 09:55 | 46.06427 | 48.12847 | 36033 ft | 405 kts | 245° |
| 2026-04-21 09:56 | 46.04387 | 48.05287 | 36035 ft | 405 kts | 246° |
| 2026-04-21 09:56 | 46.02349 | 47.97734 | 36035 ft | 405 kts | 246° |
| 2026-04-21 09:57 | 46.00310 | 47.90185 | 36036 ft | 405 kts | 245° |
| 2026-04-21 09:57 | 45.98260 | 47.82643 | 36035 ft | 404 kts | 245° |
| 2026-04-21 09:58 | 45.96202 | 47.75062 | 36034 ft | 404 kts | 245° |
| 2026-04-21 09:58 | 45.94154 | 47.67582 | 36031 ft | 405 kts | 245° |
| 2026-04-21 09:59 | 45.92087 | 47.60067 | 36025 ft | 405 kts | 245° |
| 2026-04-21 09:59 | 45.90016 | 47.52537 | 36028 ft | 405 kts | 245° |
| 2026-04-21 10:00 | 45.87934 | 47.45007 | 36027 ft | 406 kts | 245° |
| 2026-04-21 10:00 | 45.85848 | 47.37472 | 36024 ft | 406 kts | 245° |
| 2026-04-21 10:01 | 45.83751 | 47.29931 | 36018 ft | 407 kts | 245° |
| 2026-04-21 10:01 | 45.81653 | 47.22392 | 36013 ft | 408 kts | 245° |
| 2026-04-21 10:02 | 45.78488 | 47.11060 | 36011 ft | 409 kts | 245° |
| 2026-04-21 10:03 | 45.76357 | 47.03492 | 36011 ft | 410 kts | 245° |
| 2026-04-21 10:03 | 45.74220 | 46.95920 | 36011 ft | 411 kts | 245° |
| 2026-04-21 10:04 | 45.72077 | 46.88320 | 36012 ft | 411 kts | 245° |
| 2026-04-21 10:04 | 45.69939 | 46.80780 | 36010 ft | 412 kts | 245° |
| 2026-04-21 10:05 | 45.67761 | 46.73128 | 36015 ft | 412 kts | 245° |
| 2026-04-21 10:05 | 45.65600 | 46.65576 | 36013 ft | 413 kts | 245° |
| 2026-04-21 10:06 | 45.63419 | 46.57976 | 36008 ft | 413 kts | 245° |
| 2026-04-21 10:06 | 45.61232 | 46.50377 | 36007 ft | 414 kts | 245° |
| 2026-04-21 10:07 | 45.59042 | 46.42775 | 35999 ft | 413 kts | 245° |
| 2026-04-21 10:07 | 45.56847 | 46.35177 | 36001 ft | 414 kts | 245° |
| 2026-04-21 10:08 | 45.54637 | 46.27586 | 35997 ft | 414 kts | 245° |
| 2026-04-21 10:08 | 45.52420 | 46.19990 | 35991 ft | 415 kts | 245° |
| 2026-04-21 10:09 | 45.50205 | 46.12384 | 35998 ft | 416 kts | 245° |
| 2026-04-21 10:09 | 45.47980 | 46.04772 | 35998 ft | 416 kts | 245° |
| 2026-04-21 10:10 | 45.45744 | 45.97168 | 36003 ft | 416 kts | 245° |
| 2026-04-21 10:10 | 45.43520 | 45.89619 | 36000 ft | 417 kts | 245° |
| 2026-04-21 10:11 | 45.41272 | 45.82017 | 36002 ft | 416 kts | 245° |
| 2026-04-21 10:11 | 45.39015 | 45.74413 | 36003 ft | 416 kts | 245° |
| 2026-04-21 10:12 | 45.36763 | 45.66825 | 35999 ft | 416 kts | 245° |
| 2026-04-21 10:12 | 45.34503 | 45.59246 | 35994 ft | 416 kts | 245° |
| 2026-04-21 10:13 | 45.32235 | 45.51670 | 35982 ft | 416 kts | 245° |
| 2026-04-21 10:13 | 45.29984 | 45.44145 | 35977 ft | 416 kts | 245° |
| 2026-04-21 10:14 | 45.27714 | 45.36582 | 35975 ft | 416 kts | 245° |
| 2026-04-21 10:14 | 45.25527 | 45.28957 | 35980 ft | 417 kts | 246° |
| 2026-04-21 10:15 | 45.23447 | 45.21271 | 35977 ft | 417 kts | 247° |
| 2026-04-21 10:15 | 45.21365 | 45.13588 | 35974 ft | 417 kts | 246° |
| 2026-04-21 10:16 | 45.19233 | 45.05918 | 35975 ft | 418 kts | 246° |
| 2026-04-21 10:16 | 45.17090 | 44.98259 | 35973 ft | 417 kts | 246° |
| 2026-04-21 10:17 | 45.14947 | 44.90602 | 35970 ft | 418 kts | 246° |
| 2026-04-21 10:17 | 45.12801 | 44.82953 | 35971 ft | 418 kts | 246° |
| 2026-04-21 10:18 | 45.10655 | 44.75341 | 35972 ft | 419 kts | 246° |
| 2026-04-21 10:18 | 45.08490 | 44.67668 | 35974 ft | 420 kts | 246° |
| 2026-04-21 10:19 | 45.06320 | 44.59987 | 35975 ft | 420 kts | 246° |
| 2026-04-21 10:19 | 45.04146 | 44.52316 | 35972 ft | 420 kts | 246° |
| 2026-04-21 10:20 | 45.01963 | 44.44646 | 35971 ft | 420 kts | 246° |
| 2026-04-21 10:20 | 44.99770 | 44.36986 | 35968 ft | 420 kts | 246° |
| 2026-04-21 10:21 | 44.97572 | 44.29329 | 35963 ft | 420 kts | 246° |
| 2026-04-21 10:21 | 44.95744 | 44.22975 | 35960 ft | 420 kts | 246° |
| 2026-04-21 10:22 | 44.93541 | 44.15346 | 35951 ft | 419 kts | 246° |
| 2026-04-21 10:22 | 44.91340 | 44.07713 | 35943 ft | 420 kts | 246° |
| 2026-04-21 10:23 | 44.89128 | 44.00083 | 35940 ft | 420 kts | 246° |
| 2026-04-21 10:23 | 44.86907 | 43.92461 | 35942 ft | 421 kts | 246° |
| 2026-04-21 10:24 | 44.84681 | 43.84831 | 35944 ft | 421 kts | 246° |
| 2026-04-21 10:24 | 44.82441 | 43.77197 | 35947 ft | 421 kts | 246° |
| 2026-04-21 10:25 | 44.80210 | 43.69621 | 35947 ft | 421 kts | 246° |
| 2026-04-21 10:25 | 44.77971 | 43.61999 | 35946 ft | 421 kts | 246° |
| 2026-04-21 10:26 | 44.75718 | 43.54383 | 35940 ft | 421 kts | 246° |
| 2026-04-21 10:26 | 44.73463 | 43.46775 | 35938 ft | 422 kts | 246° |
| 2026-04-21 10:27 | 44.71204 | 43.39183 | 35938 ft | 420 kts | 246° |
| 2026-04-21 10:27 | 44.68937 | 43.31608 | 35937 ft | 420 kts | 246° |
| 2026-04-21 10:28 | 44.66669 | 43.24036 | 35936 ft | 420 kts | 246° |
| 2026-04-21 10:28 | 44.64390 | 43.16465 | 35937 ft | 420 kts | 246° |
| 2026-04-21 10:29 | 44.62108 | 43.08905 | 35939 ft | 420 kts | 246° |
| 2026-04-21 10:29 | 44.59820 | 43.01346 | 35940 ft | 420 kts | 246° |
| 2026-04-21 10:30 | 44.57538 | 42.93850 | 35941 ft | 420 kts | 246° |
| 2026-04-21 10:30 | 44.55231 | 42.86305 | 35944 ft | 420 kts | 246° |
| 2026-04-21 10:31 | 44.52917 | 42.78766 | 35946 ft | 421 kts | 245° |
| 2026-04-21 10:31 | 44.50602 | 42.71228 | 35948 ft | 421 kts | 246° |
| 2026-04-21 10:32 | 44.48294 | 42.63690 | 35950 ft | 421 kts | 245° |
| 2026-04-21 10:32 | 44.45985 | 42.56213 | 35949 ft | 421 kts | 245° |
| 2026-04-21 10:33 | 44.43660 | 42.48685 | 35946 ft | 421 kts | 245° |
| 2026-04-21 10:33 | 44.41316 | 42.41117 | 35946 ft | 421 kts | 245° |
| 2026-04-21 10:34 | 44.38991 | 42.33656 | 35949 ft | 421 kts | 245° |
| 2026-04-21 10:34 | 44.36642 | 42.26135 | 35949 ft | 421 kts | 245° |
| 2026-04-21 10:35 | 44.34291 | 42.18630 | 35951 ft | 422 kts | 245° |
| 2026-04-21 10:35 | 44.31936 | 42.11127 | 35948 ft | 422 kts | 245° |
| 2026-04-21 10:36 | 44.29575 | 42.03622 | 35944 ft | 422 kts | 245° |
| 2026-04-21 10:36 | 44.27207 | 41.96121 | 35945 ft | 422 kts | 245° |
| 2026-04-21 10:37 | 44.24855 | 41.88684 | 35944 ft | 421 kts | 245° |
| 2026-04-21 10:37 | 44.22478 | 41.81208 | 35944 ft | 421 kts | 245° |
| 2026-04-21 10:38 | 44.20098 | 41.73746 | 35943 ft | 421 kts | 245° |
| 2026-04-21 10:38 | 44.17717 | 41.66294 | 35939 ft | 421 kts | 245° |
| 2026-04-21 10:39 | 44.15333 | 41.58850 | 35940 ft | 421 kts | 245° |
| 2026-04-21 10:39 | 44.12935 | 41.51410 | 35939 ft | 421 kts | 245° |
| 2026-04-21 10:40 | 44.10560 | 41.43961 | 35946 ft | 421 kts | 246° |
| 2026-04-21 10:40 | 44.08288 | 41.36460 | 35957 ft | 421 kts | 246° |
| 2026-04-21 10:41 | 44.06038 | 41.28954 | 35959 ft | 420 kts | 246° |
| 2026-04-21 10:41 | 44.03761 | 41.21468 | 35960 ft | 420 kts | 246° |
| 2026-04-21 10:42 | 44.01469 | 41.14016 | 35960 ft | 419 kts | 246° |
| 2026-04-21 10:42 | 43.99188 | 41.06627 | 35958 ft | 419 kts | 246° |
| 2026-04-21 10:42 | 43.98037 | 41.02897 | 35366 ft | 423 kts | 246° |
| 2026-04-21 10:43 | 43.96868 | 40.99110 | 34527 ft | 428 kts | 246° |
| 2026-04-21 10:43 | 43.95687 | 40.95294 | 33703 ft | 432 kts | 246° |
| 2026-04-21 10:43 | 43.94493 | 40.91446 | 32806 ft | 435 kts | 246° |
| 2026-04-21 10:43 | 43.93289 | 40.87568 | 31912 ft | 439 kts | 246° |
| 2026-04-21 10:44 | 43.92080 | 40.83670 | 31024 ft | 441 kts | 246° |
| 2026-04-21 10:44 | 43.90869 | 40.79759 | 30383 ft | 438 kts | 246° |
| 2026-04-21 10:44 | 43.89673 | 40.75904 | 29817 ft | 433 kts | 246° |
| 2026-04-21 10:44 | 43.88479 | 40.72079 | 29189 ft | 431 kts | 246° |
| 2026-04-21 10:45 | 43.87291 | 40.68292 | 28583 ft | 427 kts | 245° |
| 2026-04-21 10:45 | 43.86103 | 40.64537 | 27968 ft | 423 kts | 245° |
| 2026-04-21 10:45 | 43.84918 | 40.60825 | 27368 ft | 419 kts | 245° |
| 2026-04-21 10:45 | 43.83736 | 40.57144 | 26781 ft | 416 kts | 245° |
| 2026-04-21 10:46 | 43.82565 | 40.53501 | 26197 ft | 412 kts | 245° |
| 2026-04-21 10:46 | 43.81407 | 40.49889 | 25620 ft | 408 kts | 246° |
| 2026-04-21 10:46 | 43.80266 | 40.46315 | 25059 ft | 405 kts | 246° |
| 2026-04-21 10:46 | 43.79132 | 40.42765 | 24496 ft | 401 kts | 246° |
| 2026-04-21 10:47 | 43.78005 | 40.39256 | 23938 ft | 397 kts | 246° |
| 2026-04-21 10:47 | 43.76885 | 40.35787 | 23429 ft | 392 kts | 245° |
| 2026-04-21 10:47 | 43.75777 | 40.32360 | 22916 ft | 388 kts | 245° |
| 2026-04-21 10:47 | 43.74682 | 40.28966 | 22442 ft | 383 kts | 246° |
| 2026-04-21 10:48 | 43.73621 | 40.25676 | 21981 ft | 378 kts | 245° |
| 2026-04-21 10:48 | 43.72556 | 40.22379 | 21546 ft | 372 kts | 245° |
| 2026-04-21 10:48 | 43.71509 | 40.19140 | 21105 ft | 366 kts | 245° |
| 2026-04-21 10:48 | 43.70464 | 40.15946 | 20665 ft | 362 kts | 243° |
| 2026-04-21 10:49 | 43.69125 | 40.13038 | 20225 ft | 357 kts | 231° |
| 2026-04-21 10:49 | 43.67378 | 40.10599 | 19993 ft | 362 kts | 219° |
| 2026-04-21 10:49 | 43.65265 | 40.08656 | 19915 ft | 368 kts | 208° |
| 2026-04-21 10:49 | 43.62934 | 40.07157 | 19826 ft | 369 kts | 205° |
| 2026-04-21 10:50 | 43.60596 | 40.05689 | 19575 ft | 369 kts | 205° |
| 2026-04-21 10:50 | 43.58264 | 40.04227 | 19322 ft | 367 kts | 205° |
| 2026-04-21 10:50 | 43.55940 | 40.02768 | 19075 ft | 366 kts | 205° |
| 2026-04-21 10:50 | 43.53628 | 40.01315 | 18822 ft | 365 kts | 205° |
| 2026-04-21 10:51 | 43.51317 | 39.99866 | 18571 ft | 364 kts | 205° |
| 2026-04-21 10:51 | 43.49015 | 39.98428 | 18337 ft | 363 kts | 205° |
| 2026-04-21 10:51 | 43.46714 | 39.96996 | 17969 ft | 361 kts | 205° |
| 2026-04-21 10:51 | 43.44419 | 39.95736 | 17586 ft | 359 kts | 199° |
| 2026-04-21 10:52 | 43.42053 | 39.94671 | 17192 ft | 357 kts | 199° |
| 2026-04-21 10:52 | 43.39703 | 39.93602 | 16799 ft | 355 kts | 199° |
| 2026-04-21 10:52 | 43.37370 | 39.92535 | 16414 ft | 353 kts | 199° |
| 2026-04-21 10:52 | 43.35047 | 39.91470 | 16026 ft | 351 kts | 199° |
| 2026-04-21 10:53 | 43.32734 | 39.90410 | 15641 ft | 349 kts | 199° |
| 2026-04-21 10:53 | 43.30439 | 39.89363 | 15257 ft | 347 kts | 199° |
| 2026-04-21 10:53 | 43.28154 | 39.88324 | 14877 ft | 345 kts | 199° |
| 2026-04-21 10:53 | 43.25880 | 39.87293 | 14500 ft | 343 kts | 199° |
| 2026-04-21 10:54 | 43.23624 | 39.86271 | 14123 ft | 341 kts | 199° |
| 2026-04-21 10:54 | 43.21371 | 39.85249 | 13756 ft | 339 kts | 199° |
| 2026-04-21 10:54 | 43.19155 | 39.84245 | 13521 ft | 330 kts | 199° |
| 2026-04-21 10:54 | 43.17014 | 39.83279 | 13389 ft | 318 kts | 199° |
| 2026-04-21 10:55 | 43.14957 | 39.82350 | 13264 ft | 306 kts | 200° |
| 2026-04-21 10:55 | 43.12963 | 39.81450 | 13034 ft | 299 kts | 200° |
| 2026-04-21 10:55 | 43.11027 | 39.80576 | 12704 ft | 296 kts | 200° |
| 2026-04-21 10:55 | 43.09076 | 39.79698 | 12334 ft | 294 kts | 200° |
| 2026-04-21 10:56 | 43.07200 | 39.78637 | 11949 ft | 290 kts | 214° |
| 2026-04-21 10:56 | 43.05784 | 39.76761 | 11350 ft | 282 kts | 238° |
| 2026-04-21 10:56 | 43.05103 | 39.74291 | 10693 ft | 276 kts | 263° |
| 2026-04-21 10:56 | 43.05231 | 39.71646 | 10410 ft | 284 kts | 284° |
| 2026-04-21 10:57 | 43.05810 | 39.69066 | 10086 ft | 285 kts | 286° |
| 2026-04-21 10:57 | 43.06402 | 39.66484 | 9749 ft | 284 kts | 286° |
| 2026-04-21 10:57 | 43.06990 | 39.63906 | 9414 ft | 284 kts | 286° |
| 2026-04-21 10:57 | 43.07578 | 39.61330 | 9079 ft | 283 kts | 286° |
| 2026-04-21 10:58 | 43.08165 | 39.58758 | 8749 ft | 283 kts | 286° |
| 2026-04-21 10:58 | 43.08745 | 39.56228 | 8426 ft | 282 kts | 287° |
| 2026-04-21 10:58 | 43.09332 | 39.53679 | 8094 ft | 281 kts | 287° |
| 2026-04-21 10:58 | 43.09922 | 39.51138 | 7763 ft | 279 kts | 288° |
| 2026-04-21 10:59 | 43.10858 | 39.48829 | 7447 ft | 278 kts | 310° |
| 2026-04-21 10:59 | 43.12369 | 39.47204 | 7121 ft | 279 kts | 334° |
| 2026-04-21 10:59 | 43.14229 | 39.46510 | 6767 ft | 278 kts | 357° |
| 2026-04-21 10:59 | 43.16146 | 39.46785 | 6416 ft | 278 kts | 16° |
| 2026-04-21 11:00 | 43.17882 | 39.47890 | 6058 ft | 275 kts | 36° |
| 2026-04-21 11:00 | 43.19234 | 39.49708 | 5773 ft | 273 kts | 56° |
| 2026-04-21 11:00 | 43.20063 | 39.52026 | 5518 ft | 271 kts | 73° |
| 2026-04-21 11:00 | 43.20637 | 39.54487 | 5254 ft | 271 kts | 73° |
| 2026-04-21 11:01 | 43.21204 | 39.56942 | 4988 ft | 270 kts | 73° |
| 2026-04-21 11:01 | 43.21768 | 39.59388 | 4725 ft | 268 kts | 73° |
| 2026-04-21 11:01 | 43.22329 | 39.61828 | 4467 ft | 267 kts | 73° |
| 2026-04-21 11:02 | 43.23448 | 39.66657 | 3950 ft | 264 kts | 72° |
| 2026-04-21 11:02 | 43.23993 | 39.69007 | 3790 ft | 250 kts | 72° |
| 2026-04-21 11:02 | 43.24529 | 39.71325 | 3485 ft | 259 kts | 73° |
| 2026-04-21 11:02 | 43.25074 | 39.73698 | 3219 ft | 260 kts | 73° |
| 2026-04-21 11:03 | 43.25619 | 39.76058 | 2981 ft | 257 kts | 72° |
| 2026-04-21 11:03 | 43.26146 | 39.78341 | 2837 ft | 247 kts | 72° |
| 2026-04-21 11:03 | 43.26747 | 39.80560 | 2585 ft | 245 kts | 62° |
| 2026-04-21 11:03 | 43.27721 | 39.82364 | 2489 ft | 225 kts | 44° |
| 2026-04-21 11:04 | 43.28919 | 39.83587 | 2384 ft | 203 kts | 29° |
| 2026-04-21 11:04 | 43.30081 | 39.84451 | 2329 ft | 176 kts | 30° |
| 2026-04-21 11:04 | 43.30762 | 39.84958 | 2260 ft | 162 kts | 30° |
| 2026-04-21 11:04 | 43.31717 | 39.85674 | 2183 ft | 153 kts | 30° |
| 2026-04-21 11:05 | 43.32639 | 39.86365 | 2115 ft | 150 kts | 30° |
| 2026-04-21 11:05 | 43.33551 | 39.87048 | 2058 ft | 149 kts | 30° |
| 2026-04-21 11:05 | 43.34459 | 39.87727 | 1938 ft | 148 kts | 30° |
| 2026-04-21 11:05 | 43.35655 | 39.88624 | 1720 ft | 148 kts | 31° |
| 2026-04-21 11:06 | 43.36562 | 39.89302 | 1534 ft | 149 kts | 30° |
| 2026-04-21 11:06 | 43.37175 | 39.89761 | 1408 ft | 148 kts | 31° |
| 2026-04-21 11:06 | 43.38084 | 39.90443 | 1215 ft | 149 kts | 31° |
| 2026-04-21 11:06 | 43.38992 | 39.91124 | 1022 ft | 148 kts | 31° |
| 2026-04-21 11:07 | 43.39897 | 39.91802 | 838 ft | 148 kts | 31° |
| 2026-04-21 11:07 | 43.40786 | 39.92469 | 657 ft | 147 kts | 31° |
| 2026-04-21 11:07 | 43.41683 | 39.93143 | 462 ft | 147 kts | 31° |
| 2026-04-21 11:07 | 43.42594 | 39.93827 | 263 ft | 147 kts | 31° |
| 2026-04-21 11:08 | 43.43494 | 39.94502 | 100 ft | 147 kts | 31° |
| 2026-04-21 11:08 | 43.44325 | 39.95138 | 80 ft | 117 kts | 27° |
| 2026-04-21 11:08 | 43.44868 | 39.95539 | 89 ft | 59 kts | 25° |
| 2026-04-21 11:08 | 43.44966 | 39.95580 | 91 ft | 1 kts | 319° |
| 2026-04-21 11:09 | 43.44999 | 39.95543 | 92 ft | 13 kts | 327° |
| 2026-04-21 11:09 | 43.45056 | 39.95444 | 92 ft | 13 kts | 258° |
| 2026-04-21 11:09 | 43.45001 | 39.95299 | 89 ft | 20 kts | 244° |
| 2026-04-21 11:09 | 43.44911 | 39.95057 | 83 ft | 37 kts | 241° |
| 2026-04-21 11:10 | 43.44804 | 39.94750 | 71 ft | 25 kts | 247° |
| 2026-04-21 11:10 | 43.44759 | 39.94611 | 75 ft | 7 kts | 246° |
| 2026-04-21 11:10 | 43.44740 | 39.94549 | 69 ft | 7 kts | 246° |
| 2026-04-21 11:10 | 43.44749 | 39.94500 | 67 ft | 5 kts | 321° |
| 2026-04-21 11:11 | 43.44779 | 39.94477 | 67 ft | 5 kts | 339° |
| 2026-04-21 11:11 | 43.44807 | 39.94460 | 65 ft | 4 kts | 335° |
| 2026-04-21 11:11 | 43.44829 | 39.94446 | 72 ft | 2 kts | 335° |
| 2026-04-21 11:11 | 43.44831 | 39.94445 | 75 ft | 0 kts | 335° |